sensor_id;sensor_type;location;lat;lon;timestamp;P1;durP1;ratioP1;P2;durP2;ratioP2
40871;SDS011;26591;43.264;26.940;2023-02-04T00:01:35;8.30;;;5.35;;
40871;SDS011;26591;43.264;26.940;2023-02-04T00:04:01;8.70;;;5.97;;
40871;SDS011;26591;43.264;26.940;2023-02-04T00:06:27;11.13;;;6.03;;
40871;SDS011;26591;43.264;26.940;2023-02-04T00:08:52;27.50;;;12.43;;
40871;SDS011;26591;43.264;26.940;2023-02-04T00:11:18;14.55;;;7.20;;
40871;SDS011;26591;43.264;26.940;2023-02-04T00:13:43;11.20;;;6.40;;
40871;SDS011;26591;43.264;26.940;2023-02-04T00:16:09;8.25;;;5.45;;
40871;SDS011;26591;43.264;26.940;2023-02-04T00:18:34;11.38;;;5.55;;
40871;SDS011;26591;43.264;26.940;2023-02-04T00:21:00;14.13;;;7.10;;
40871;SDS011;26591;43.264;26.940;2023-02-04T00:23:25;8.23;;;4.97;;
40871;SDS011;26591;43.264;26.940;2023-02-04T00:25:54;8.63;;;5.65;;
40871;SDS011;26591;43.264;26.940;2023-02-04T00:28:19;10.75;;;6.20;;
40871;SDS011;26591;43.264;26.940;2023-02-04T00:30:44;10.23;;;6.57;;
40871;SDS011;26591;43.264;26.940;2023-02-04T00:33:11;11.63;;;7.03;;
40871;SDS011;26591;43.264;26.940;2023-02-04T00:35:37;15.48;;;6.97;;
40871;SDS011;26591;43.264;26.940;2023-02-04T00:38:03;9.45;;;6.10;;
40871;SDS011;26591;43.264;26.940;2023-02-04T00:40:38;10.60;;;6.50;;
40871;SDS011;26591;43.264;26.940;2023-02-04T00:43:03;10.73;;;6.78;;
40871;SDS011;26591;43.264;26.940;2023-02-04T00:45:30;11.32;;;7.07;;
40871;SDS011;26591;43.264;26.940;2023-02-04T00:47:56;13.35;;;6.82;;
40871;SDS011;26591;43.264;26.940;2023-02-04T00:50:21;11.63;;;7.32;;
40871;SDS011;26591;43.264;26.940;2023-02-04T00:52:47;15.57;;;8.88;;
40871;SDS011;26591;43.264;26.940;2023-02-04T00:55:13;19.10;;;9.07;;
40871;SDS011;26591;43.264;26.940;2023-02-04T00:57:40;13.52;;;8.27;;
40871;SDS011;26591;43.264;26.940;2023-02-04T01:00:06;18.38;;;9.35;;
40871;SDS011;26591;43.264;26.940;2023-02-04T01:02:32;23.25;;;12.50;;
40871;SDS011;26591;43.264;26.940;2023-02-04T01:04:58;35.30;;;16.27;;
40871;SDS011;26591;43.264;26.940;2023-02-04T01:07:23;57.38;;;19.70;;
40871;SDS011;26591;43.264;26.940;2023-02-04T01:09:49;37.35;;;15.88;;
40871;SDS011;26591;43.264;26.940;2023-02-04T01:12:14;29.33;;;12.50;;
40871;SDS011;26591;43.264;26.940;2023-02-04T01:14:40;21.23;;;10.73;;
40871;SDS011;26591;43.264;26.940;2023-02-04T01:17:05;26.92;;;12.90;;
40871;SDS011;26591;43.264;26.940;2023-02-04T01:19:31;25.58;;;12.95;;
40871;SDS011;26591;43.264;26.940;2023-02-04T01:21:56;37.33;;;16.55;;
40871;SDS011;26591;43.264;26.940;2023-02-04T01:24:22;24.67;;;12.07;;
40871;SDS011;26591;43.264;26.940;2023-02-04T01:26:53;31.48;;;14.52;;
40871;SDS011;26591;43.264;26.940;2023-02-04T01:29:19;17.33;;;8.82;;
40871;SDS011;26591;43.264;26.940;2023-02-04T01:31:44;27.52;;;12.00;;
40871;SDS011;26591;43.264;26.940;2023-02-04T01:34:09;17.20;;;9.55;;
40871;SDS011;26591;43.264;26.940;2023-02-04T01:36:35;17.08;;;9.80;;
40871;SDS011;26591;43.264;26.940;2023-02-04T01:39:00;12.35;;;5.88;;
40871;SDS011;26591;43.264;26.940;2023-02-04T01:41:27;10.88;;;5.95;;
40871;SDS011;26591;43.264;26.940;2023-02-04T01:43:52;3.00;;;1.73;;
40871;SDS011;26591;43.264;26.940;2023-02-04T01:46:19;4.55;;;2.25;;
40871;SDS011;26591;43.264;26.940;2023-02-04T01:48:44;4.25;;;2.47;;
40871;SDS011;26591;43.264;26.940;2023-02-04T01:51:13;4.25;;;2.70;;
40871;SDS011;26591;43.264;26.940;2023-02-04T01:53:43;2.22;;;1.80;;
40871;SDS011;26591;43.264;26.940;2023-02-04T01:56:18;4.32;;;1.90;;
40871;SDS011;26591;43.264;26.940;2023-02-04T01:58:46;4.22;;;2.30;;
40871;SDS011;26591;43.264;26.940;2023-02-04T02:01:13;3.70;;;2.47;;
40871;SDS011;26591;43.264;26.940;2023-02-04T02:03:57;3.72;;;2.08;;
40871;SDS011;26591;43.264;26.940;2023-02-04T02:06:23;4.60;;;2.28;;
40871;SDS011;26591;43.264;26.940;2023-02-04T02:08:48;5.75;;;2.67;;
40871;SDS011;26591;43.264;26.940;2023-02-04T02:11:14;7.93;;;3.40;;
40871;SDS011;26591;43.264;26.940;2023-02-04T02:13:42;6.20;;;3.55;;
40871;SDS011;26591;43.264;26.940;2023-02-04T02:16:07;7.47;;;3.50;;
40871;SDS011;26591;43.264;26.940;2023-02-04T02:18:33;5.15;;;3.33;;
40871;SDS011;26591;43.264;26.940;2023-02-04T02:20:59;7.90;;;4.38;;
40871;SDS011;26591;43.264;26.940;2023-02-04T02:26:18;4.25;;;3.25;;
40871;SDS011;26591;43.264;26.940;2023-02-04T02:28:46;4.90;;;3.20;;
40871;SDS011;26591;43.264;26.940;2023-02-04T02:31:25;6.80;;;3.28;;
40871;SDS011;26591;43.264;26.940;2023-02-04T02:33:51;7.15;;;3.97;;
40871;SDS011;26591;43.264;26.940;2023-02-04T02:36:18;5.97;;;3.47;;
40871;SDS011;26591;43.264;26.940;2023-02-04T02:38:46;6.15;;;4.00;;
40871;SDS011;26591;43.264;26.940;2023-02-04T02:41:12;6.18;;;4.13;;
40871;SDS011;26591;43.264;26.940;2023-02-04T02:43:37;7.45;;;3.72;;
40871;SDS011;26591;43.264;26.940;2023-02-04T02:46:04;6.10;;;3.83;;
40871;SDS011;26591;43.264;26.940;2023-02-04T02:48:30;5.47;;;3.80;;
40871;SDS011;26591;43.264;26.940;2023-02-04T02:50:55;12.00;;;3.55;;
40871;SDS011;26591;43.264;26.940;2023-02-04T02:53:21;5.00;;;3.35;;
40871;SDS011;26591;43.264;26.940;2023-02-04T02:55:47;4.55;;;3.40;;
40871;SDS011;26591;43.264;26.940;2023-02-04T03:00:53;5.53;;;3.88;;
40871;SDS011;26591;43.264;26.940;2023-02-04T03:03:26;6.00;;;3.65;;
40871;SDS011;26591;43.264;26.940;2023-02-04T03:05:55;6.80;;;3.80;;
40871;SDS011;26591;43.264;26.940;2023-02-04T03:08:24;8.25;;;4.03;;
40871;SDS011;26591;43.264;26.940;2023-02-04T03:10:50;5.88;;;3.53;;
40871;SDS011;26591;43.264;26.940;2023-02-04T03:13:16;11.85;;;4.45;;
40871;SDS011;26591;43.264;26.940;2023-02-04T03:15:42;7.50;;;4.55;;
40871;SDS011;26591;43.264;26.940;2023-02-04T03:18:11;11.15;;;5.40;;
40871;SDS011;26591;43.264;26.940;2023-02-04T03:20:39;21.17;;;10.35;;
40871;SDS011;26591;43.264;26.940;2023-02-04T03:23:05;11.07;;;6.05;;
40871;SDS011;26591;43.264;26.940;2023-02-04T03:25:31;6.35;;;4.03;;
40871;SDS011;26591;43.264;26.940;2023-02-04T03:27:57;8.25;;;4.30;;
40871;SDS011;26591;43.264;26.940;2023-02-04T03:30:23;7.22;;;4.13;;
40871;SDS011;26591;43.264;26.940;2023-02-04T03:32:49;9.95;;;4.30;;
40871;SDS011;26591;43.264;26.940;2023-02-04T03:35:15;10.85;;;4.25;;
40871;SDS011;26591;43.264;26.940;2023-02-04T03:37:41;9.00;;;4.63;;
40871;SDS011;26591;43.264;26.940;2023-02-04T03:40:10;5.25;;;3.63;;
40871;SDS011;26591;43.264;26.940;2023-02-04T03:42:36;8.40;;;4.75;;
40871;SDS011;26591;43.264;26.940;2023-02-04T03:45:01;7.95;;;4.03;;
40871;SDS011;26591;43.264;26.940;2023-02-04T03:47:27;10.35;;;3.40;;
40871;SDS011;26591;43.264;26.940;2023-02-04T03:49:52;7.72;;;4.13;;
40871;SDS011;26591;43.264;26.940;2023-02-04T03:52:18;5.13;;;3.60;;
40871;SDS011;26591;43.264;26.940;2023-02-04T03:54:44;7.63;;;3.60;;
40871;SDS011;26591;43.264;26.940;2023-02-04T03:57:10;6.20;;;4.00;;
40871;SDS011;26591;43.264;26.940;2023-02-04T03:59:36;14.52;;;7.40;;
40871;SDS011;26591;43.264;26.940;2023-02-04T04:02:06;7.28;;;3.72;;
40871;SDS011;26591;43.264;26.940;2023-02-04T04:04:31;7.45;;;3.67;;
40871;SDS011;26591;43.264;26.940;2023-02-04T04:06:56;11.80;;;5.88;;
40871;SDS011;26591;43.264;26.940;2023-02-04T04:09:22;8.23;;;4.70;;
40871;SDS011;26591;43.264;26.940;2023-02-04T04:11:47;10.65;;;4.88;;
40871;SDS011;26591;43.264;26.940;2023-02-04T04:14:13;5.75;;;3.92;;
40871;SDS011;26591;43.264;26.940;2023-02-04T04:16:41;8.75;;;3.53;;
40871;SDS011;26591;43.264;26.940;2023-02-04T04:19:06;5.40;;;3.63;;
40871;SDS011;26591;43.264;26.940;2023-02-04T04:21:32;7.18;;;4.20;;
40871;SDS011;26591;43.264;26.940;2023-02-04T04:23:57;6.72;;;4.80;;
40871;SDS011;26591;43.264;26.940;2023-02-04T04:26:22;7.90;;;4.40;;
40871;SDS011;26591;43.264;26.940;2023-02-04T04:28:48;10.00;;;5.20;;
40871;SDS011;26591;43.264;26.940;2023-02-04T04:31:14;7.80;;;4.97;;
40871;SDS011;26591;43.264;26.940;2023-02-04T04:33:39;11.80;;;6.20;;
40871;SDS011;26591;43.264;26.940;2023-02-04T04:36:05;9.25;;;5.43;;
40871;SDS011;26591;43.264;26.940;2023-02-04T04:38:31;6.57;;;5.05;;
40871;SDS011;26591;43.264;26.940;2023-02-04T04:40:56;9.95;;;5.35;;
40871;SDS011;26591;43.264;26.940;2023-02-04T04:43:22;7.00;;;4.57;;
40871;SDS011;26591;43.264;26.940;2023-02-04T04:45:47;8.05;;;4.93;;
40871;SDS011;26591;43.264;26.940;2023-02-04T04:48:13;9.63;;;5.10;;
40871;SDS011;26591;43.264;26.940;2023-02-04T04:50:38;9.55;;;5.20;;
40871;SDS011;26591;43.264;26.940;2023-02-04T04:53:06;6.75;;;5.05;;
40871;SDS011;26591;43.264;26.940;2023-02-04T04:55:35;7.95;;;5.00;;
40871;SDS011;26591;43.264;26.940;2023-02-04T04:58:02;8.45;;;5.03;;
40871;SDS011;26591;43.264;26.940;2023-02-04T05:00:28;7.78;;;5.22;;
40871;SDS011;26591;43.264;26.940;2023-02-04T05:02:53;8.13;;;5.47;;
40871;SDS011;26591;43.264;26.940;2023-02-04T05:05:19;9.73;;;5.63;;
40871;SDS011;26591;43.264;26.940;2023-02-04T05:07:44;9.73;;;6.30;;
40871;SDS011;26591;43.264;26.940;2023-02-04T05:10:10;6.72;;;5.28;;
40871;SDS011;26591;43.264;26.940;2023-02-04T05:12:35;8.93;;;5.18;;
40871;SDS011;26591;43.264;26.940;2023-02-04T05:15:01;10.27;;;7.05;;
40871;SDS011;26591;43.264;26.940;2023-02-04T05:17:27;10.60;;;6.13;;
40871;SDS011;26591;43.264;26.940;2023-02-04T05:19:52;23.77;;;11.70;;
40871;SDS011;26591;43.264;26.940;2023-02-04T05:22:18;50.92;;;22.83;;
40871;SDS011;26591;43.264;26.940;2023-02-04T05:24:43;44.67;;;21.35;;
40871;SDS011;26591;43.264;26.940;2023-02-04T05:27:08;32.30;;;15.93;;
40871;SDS011;26591;43.264;26.940;2023-02-04T05:29:34;48.75;;;23.15;;
40871;SDS011;26591;43.264;26.940;2023-02-04T05:31:59;11.88;;;7.75;;
40871;SDS011;26591;43.264;26.940;2023-02-04T05:34:25;20.80;;;10.48;;
40871;SDS011;26591;43.264;26.940;2023-02-04T05:36:50;34.00;;;16.65;;
40871;SDS011;26591;43.264;26.940;2023-02-04T05:39:16;11.15;;;7.45;;
40871;SDS011;26591;43.264;26.940;2023-02-04T05:41:42;25.55;;;14.68;;
40871;SDS011;26591;43.264;26.940;2023-02-04T05:44:07;38.42;;;22.00;;
40871;SDS011;26591;43.264;26.940;2023-02-04T05:46:33;44.95;;;23.45;;
40871;SDS011;26591;43.264;26.940;2023-02-04T05:48:58;49.08;;;26.75;;
40871;SDS011;26591;43.264;26.940;2023-02-04T05:51:42;44.38;;;24.30;;
40871;SDS011;26591;43.264;26.940;2023-02-04T05:54:10;36.45;;;24.10;;
40871;SDS011;26591;43.264;26.940;2023-02-04T05:56:36;52.08;;;29.48;;
40871;SDS011;26591;43.264;26.940;2023-02-04T05:59:01;51.83;;;29.00;;
40871;SDS011;26591;43.264;26.940;2023-02-04T06:01:27;52.13;;;28.40;;
40871;SDS011;26591;43.264;26.940;2023-02-04T06:03:52;23.40;;;15.75;;
40871;SDS011;26591;43.264;26.940;2023-02-04T06:06:17;18.67;;;13.18;;
40871;SDS011;26591;43.264;26.940;2023-02-04T06:08:43;23.73;;;13.75;;
40871;SDS011;26591;43.264;26.940;2023-02-04T06:11:08;32.45;;;20.48;;
40871;SDS011;26591;43.264;26.940;2023-02-04T06:13:34;33.35;;;20.10;;
40871;SDS011;26591;43.264;26.940;2023-02-04T06:15:59;17.38;;;10.57;;
40871;SDS011;26591;43.264;26.940;2023-02-04T06:18:25;17.95;;;11.60;;
40871;SDS011;26591;43.264;26.940;2023-02-04T06:20:50;15.63;;;11.73;;
40871;SDS011;26591;43.264;26.940;2023-02-04T06:23:16;17.25;;;12.95;;
40871;SDS011;26591;43.264;26.940;2023-02-04T06:25:41;19.27;;;13.50;;
40871;SDS011;26591;43.264;26.940;2023-02-04T06:28:06;16.50;;;10.88;;
40871;SDS011;26591;43.264;26.940;2023-02-04T06:30:32;12.98;;;9.63;;
40871;SDS011;26591;43.264;26.940;2023-02-04T06:32:57;12.32;;;9.13;;
40871;SDS011;26591;43.264;26.940;2023-02-04T06:35:23;20.95;;;12.57;;
40871;SDS011;26591;43.264;26.940;2023-02-04T06:37:48;18.80;;;11.18;;
40871;SDS011;26591;43.264;26.940;2023-02-04T06:40:14;18.17;;;12.52;;
40871;SDS011;26591;43.264;26.940;2023-02-04T06:42:39;22.63;;;14.77;;
40871;SDS011;26591;43.264;26.940;2023-02-04T06:45:05;23.00;;;16.33;;
40871;SDS011;26591;43.264;26.940;2023-02-04T06:47:31;28.98;;;17.88;;
40871;SDS011;26591;43.264;26.940;2023-02-04T06:49:59;34.35;;;22.08;;
40871;SDS011;26591;43.264;26.940;2023-02-04T06:52:27;35.53;;;22.58;;
40871;SDS011;26591;43.264;26.940;2023-02-04T06:54:53;33.47;;;20.90;;
40871;SDS011;26591;43.264;26.940;2023-02-04T06:57:18;29.17;;;20.38;;
40871;SDS011;26591;43.264;26.940;2023-02-04T06:59:44;31.85;;;19.00;;
40871;SDS011;26591;43.264;26.940;2023-02-04T07:02:11;32.63;;;20.75;;
40871;SDS011;26591;43.264;26.940;2023-02-04T07:04:37;39.13;;;22.55;;
40871;SDS011;26591;43.264;26.940;2023-02-04T07:09:33;30.73;;;21.55;;
40871;SDS011;26591;43.264;26.940;2023-02-04T07:11:59;47.08;;;28.50;;
40871;SDS011;26591;43.264;26.940;2023-02-04T07:14:24;33.08;;;22.77;;
40871;SDS011;26591;43.264;26.940;2023-02-04T07:16:50;41.50;;;28.20;;
40871;SDS011;26591;43.264;26.940;2023-02-04T07:19:15;42.33;;;24.80;;
40871;SDS011;26591;43.264;26.940;2023-02-04T07:21:41;39.78;;;23.30;;
40871;SDS011;26591;43.264;26.940;2023-02-04T07:24:07;47.58;;;26.80;;
40871;SDS011;26591;43.264;26.940;2023-02-04T07:26:32;41.33;;;25.38;;
40871;SDS011;26591;43.264;26.940;2023-02-04T07:28:58;34.50;;;21.27;;
40871;SDS011;26591;43.264;26.940;2023-02-04T07:31:24;33.33;;;22.42;;
40871;SDS011;26591;43.264;26.940;2023-02-04T07:33:49;34.75;;;23.08;;
40871;SDS011;26591;43.264;26.940;2023-02-04T07:36:17;32.10;;;20.92;;
40871;SDS011;26591;43.264;26.940;2023-02-04T07:38:43;29.08;;;20.08;;
40871;SDS011;26591;43.264;26.940;2023-02-04T07:41:08;41.42;;;26.05;;
40871;SDS011;26591;43.264;26.940;2023-02-04T07:43:34;31.70;;;20.58;;
40871;SDS011;26591;43.264;26.940;2023-02-04T07:45:59;32.80;;;21.33;;
40871;SDS011;26591;43.264;26.940;2023-02-04T07:48:25;38.15;;;26.15;;
40871;SDS011;26591;43.264;26.940;2023-02-04T07:50:50;29.25;;;21.35;;
40871;SDS011;26591;43.264;26.940;2023-02-04T07:53:16;15.18;;;10.70;;
40871;SDS011;26591;43.264;26.940;2023-02-04T07:55:41;11.30;;;5.88;;
40871;SDS011;26591;43.264;26.940;2023-02-04T07:58:07;7.47;;;6.05;;
40871;SDS011;26591;43.264;26.940;2023-02-04T08:00:33;10.57;;;6.18;;
40871;SDS011;26591;43.264;26.940;2023-02-04T08:02:58;7.28;;;5.20;;
40871;SDS011;26591;43.264;26.940;2023-02-04T08:05:23;10.55;;;7.45;;
40871;SDS011;26591;43.264;26.940;2023-02-04T08:07:49;7.88;;;5.75;;
40871;SDS011;26591;43.264;26.940;2023-02-04T08:10:14;7.88;;;4.55;;
40871;SDS011;26591;43.264;26.940;2023-02-04T08:12:40;6.18;;;5.28;;
40871;SDS011;26591;43.264;26.940;2023-02-04T08:15:05;7.57;;;5.22;;
40871;SDS011;26591;43.264;26.940;2023-02-04T08:17:32;8.25;;;5.57;;
40871;SDS011;26591;43.264;26.940;2023-02-04T08:19:58;6.38;;;4.15;;
40871;SDS011;26591;43.264;26.940;2023-02-04T08:22:23;5.90;;;4.45;;
40871;SDS011;26591;43.264;26.940;2023-02-04T08:24:49;5.93;;;3.85;;
40871;SDS011;26591;43.264;26.940;2023-02-04T08:27:14;5.85;;;4.80;;
40871;SDS011;26591;43.264;26.940;2023-02-04T08:29:40;5.70;;;4.10;;
40871;SDS011;26591;43.264;26.940;2023-02-04T08:32:06;8.18;;;4.55;;
40871;SDS011;26591;43.264;26.940;2023-02-04T08:34:34;9.20;;;4.50;;
40871;SDS011;26591;43.264;26.940;2023-02-04T08:37:00;10.95;;;6.03;;
40871;SDS011;26591;43.264;26.940;2023-02-04T08:39:25;6.90;;;4.32;;
40871;SDS011;26591;43.264;26.940;2023-02-04T08:41:50;8.25;;;5.75;;
40871;SDS011;26591;43.264;26.940;2023-02-04T08:44:17;9.27;;;6.07;;
40871;SDS011;26591;43.264;26.940;2023-02-04T08:46:42;11.13;;;7.63;;
40871;SDS011;26591;43.264;26.940;2023-02-04T08:49:08;9.00;;;5.97;;
40871;SDS011;26591;43.264;26.940;2023-02-04T08:51:33;9.07;;;5.43;;
40871;SDS011;26591;43.264;26.940;2023-02-04T08:53:59;7.97;;;5.22;;
40871;SDS011;26591;43.264;26.940;2023-02-04T08:56:24;7.03;;;4.82;;
40871;SDS011;26591;43.264;26.940;2023-02-04T08:58:50;11.40;;;5.38;;
40871;SDS011;26591;43.264;26.940;2023-02-04T09:01:18;6.53;;;4.70;;
40871;SDS011;26591;43.264;26.940;2023-02-04T09:03:44;6.20;;;4.75;;
40871;SDS011;26591;43.264;26.940;2023-02-04T09:06:12;15.63;;;8.52;;
40871;SDS011;26591;43.264;26.940;2023-02-04T09:08:38;14.50;;;6.93;;
40871;SDS011;26591;43.264;26.940;2023-02-04T09:11:03;12.98;;;8.10;;
40871;SDS011;26591;43.264;26.940;2023-02-04T09:13:29;12.23;;;9.05;;
40871;SDS011;26591;43.264;26.940;2023-02-04T09:15:56;19.15;;;11.32;;
40871;SDS011;26591;43.264;26.940;2023-02-04T09:18:22;16.08;;;11.10;;
40871;SDS011;26591;43.264;26.940;2023-02-04T09:20:49;16.27;;;13.25;;
40871;SDS011;26591;43.264;26.940;2023-02-04T09:23:16;16.02;;;12.73;;
40871;SDS011;26591;43.264;26.940;2023-02-04T09:25:42;17.67;;;10.68;;
40871;SDS011;26591;43.264;26.940;2023-02-04T09:28:09;14.35;;;10.10;;
40871;SDS011;26591;43.264;26.940;2023-02-04T09:30:40;13.77;;;10.20;;
40871;SDS011;26591;43.264;26.940;2023-02-04T09:33:07;20.20;;;9.55;;
40871;SDS011;26591;43.264;26.940;2023-02-04T09:35:34;14.90;;;10.00;;
40871;SDS011;26591;43.264;26.940;2023-02-04T09:37:59;15.90;;;11.43;;
40871;SDS011;26591;43.264;26.940;2023-02-04T09:40:26;16.60;;;11.38;;
40871;SDS011;26591;43.264;26.940;2023-02-04T09:42:56;17.73;;;10.63;;
40871;SDS011;26591;43.264;26.940;2023-02-04T09:45:25;16.15;;;9.18;;
40871;SDS011;26591;43.264;26.940;2023-02-04T09:47:55;12.40;;;8.52;;
40871;SDS011;26591;43.264;26.940;2023-02-04T09:50:23;11.48;;;7.72;;
40871;SDS011;26591;43.264;26.940;2023-02-04T09:52:51;17.02;;;11.95;;
40871;SDS011;26591;43.264;26.940;2023-02-04T09:55:20;24.20;;;14.75;;
40871;SDS011;26591;43.264;26.940;2023-02-04T09:57:49;18.33;;;12.45;;
40871;SDS011;26591;43.264;26.940;2023-02-04T10:00:15;20.42;;;13.90;;
40871;SDS011;26591;43.264;26.940;2023-02-04T10:02:45;9.05;;;6.05;;
40871;SDS011;26591;43.264;26.940;2023-02-04T10:05:14;13.15;;;8.35;;
40871;SDS011;26591;43.264;26.940;2023-02-04T10:07:42;14.65;;;8.93;;
40871;SDS011;26591;43.264;26.940;2023-02-04T10:10:16;9.05;;;6.13;;
40871;SDS011;26591;43.264;26.940;2023-02-04T10:12:44;12.80;;;8.43;;
40871;SDS011;26591;43.264;26.940;2023-02-04T10:15:14;8.60;;;5.40;;
40871;SDS011;26591;43.264;26.940;2023-02-04T10:17:43;5.88;;;4.47;;
40871;SDS011;26591;43.264;26.940;2023-02-04T10:20:29;6.63;;;4.20;;
40871;SDS011;26591;43.264;26.940;2023-02-04T10:22:55;7.38;;;4.30;;
40871;SDS011;26591;43.264;26.940;2023-02-04T10:25:21;4.45;;;3.20;;
40871;SDS011;26591;43.264;26.940;2023-02-04T10:27:49;5.95;;;3.97;;
40871;SDS011;26591;43.264;26.940;2023-02-04T10:30:24;8.23;;;4.05;;
40871;SDS011;26591;43.264;26.940;2023-02-04T10:32:52;7.22;;;5.40;;
40871;SDS011;26591;43.264;26.940;2023-02-04T10:35:19;5.32;;;3.03;;
40871;SDS011;26591;43.264;26.940;2023-02-04T10:37:46;2.45;;;2.25;;
40871;SDS011;26591;43.264;26.940;2023-02-04T10:40:25;20.02;;;10.88;;
40871;SDS011;26591;43.264;26.940;2023-02-04T10:43:10;24.15;;;12.35;;
40871;SDS011;26591;43.264;26.940;2023-02-04T10:45:42;29.83;;;15.05;;
40871;SDS011;26591;43.264;26.940;2023-02-04T10:48:15;18.10;;;10.63;;
40871;SDS011;26591;43.264;26.940;2023-02-04T10:50:42;57.15;;;27.50;;
40871;SDS011;26591;43.264;26.940;2023-02-04T10:53:08;30.15;;;13.88;;
40871;SDS011;26591;43.264;26.940;2023-02-04T10:55:53;16.33;;;7.53;;
40871;SDS011;26591;43.264;26.940;2023-02-04T10:58:23;13.32;;;7.82;;
40871;SDS011;26591;43.264;26.940;2023-02-04T11:00:52;24.33;;;12.05;;
40871;SDS011;26591;43.264;26.940;2023-02-04T11:03:21;32.40;;;16.75;;
40871;SDS011;26591;43.264;26.940;2023-02-04T11:05:49;98.82;;;48.83;;
40871;SDS011;26591;43.264;26.940;2023-02-04T11:08:25;17.33;;;9.68;;
40871;SDS011;26591;43.264;26.940;2023-02-04T11:10:58;15.20;;;7.68;;
40871;SDS011;26591;43.264;26.940;2023-02-04T11:13:26;14.13;;;7.40;;
40871;SDS011;26591;43.264;26.940;2023-02-04T11:16:23;15.82;;;9.25;;
40871;SDS011;26591;43.264;26.940;2023-02-04T11:19:10;34.17;;;22.05;;
40871;SDS011;26591;43.264;26.940;2023-02-04T11:26:47;11.18;;;6.30;;
40871;SDS011;26591;43.264;26.940;2023-02-04T11:39:42;9.27;;;5.40;;
40871;SDS011;26591;43.264;26.940;2023-02-04T11:42:16;10.40;;;6.22;;
40871;SDS011;26591;43.264;26.940;2023-02-04T11:44:47;7.85;;;5.53;;
40871;SDS011;26591;43.264;26.940;2023-02-04T11:47:17;10.75;;;7.32;;
40871;SDS011;26591;43.264;26.940;2023-02-04T11:49:44;10.27;;;6.22;;
40871;SDS011;26591;43.264;26.940;2023-02-04T11:52:16;11.20;;;6.75;;
40871;SDS011;26591;43.264;26.940;2023-02-04T11:54:42;13.02;;;7.47;;
40871;SDS011;26591;43.264;26.940;2023-02-04T11:57:19;14.57;;;9.65;;
40871;SDS011;26591;43.264;26.940;2023-02-04T11:59:44;13.65;;;7.63;;
40871;SDS011;26591;43.264;26.940;2023-02-04T12:02:17;9.02;;;6.45;;
40871;SDS011;26591;43.264;26.940;2023-02-04T12:04:55;10.18;;;7.70;;
40871;SDS011;26591;43.264;26.940;2023-02-04T12:07:23;10.27;;;6.88;;
40871;SDS011;26591;43.264;26.940;2023-02-04T12:09:51;14.48;;;9.25;;
40871;SDS011;26591;43.264;26.940;2023-02-04T12:12:24;10.65;;;7.30;;
40871;SDS011;26591;43.264;26.940;2023-02-04T12:14:57;10.00;;;6.70;;
40871;SDS011;26591;43.264;26.940;2023-02-04T12:17:26;11.20;;;8.18;;
40871;SDS011;26591;43.264;26.940;2023-02-04T12:20:02;9.66;;;7.01;;
40871;SDS011;26591;43.264;26.940;2023-02-04T12:22:27;9.15;;;6.60;;
40871;SDS011;26591;43.264;26.940;2023-02-04T12:24:53;11.32;;;8.07;;
40871;SDS011;26591;43.264;26.940;2023-02-04T12:27:18;7.93;;;5.70;;
40871;SDS011;26591;43.264;26.940;2023-02-04T12:30:02;10.77;;;7.32;;
40871;SDS011;26591;43.264;26.940;2023-02-04T12:32:27;10.60;;;8.55;;
40871;SDS011;26591;43.264;26.940;2023-02-04T12:34:53;12.55;;;8.77;;
40871;SDS011;26591;43.264;26.940;2023-02-04T12:37:18;15.27;;;9.52;;
40871;SDS011;26591;43.264;26.940;2023-02-04T12:39:44;10.60;;;8.07;;
40871;SDS011;26591;43.264;26.940;2023-02-04T12:42:09;10.73;;;8.35;;
40871;SDS011;26591;43.264;26.940;2023-02-04T12:44:35;12.73;;;9.27;;
40871;SDS011;26591;43.264;26.940;2023-02-04T12:47:00;14.43;;;8.88;;
40871;SDS011;26591;43.264;26.940;2023-02-04T12:49:26;12.20;;;8.65;;
40871;SDS011;26591;43.264;26.940;2023-02-04T12:51:51;13.05;;;9.73;;
40871;SDS011;26591;43.264;26.940;2023-02-04T12:54:17;13.70;;;10.38;;
40871;SDS011;26591;43.264;26.940;2023-02-04T12:56:42;13.60;;;9.63;;
40871;SDS011;26591;43.264;26.940;2023-02-04T12:59:08;14.80;;;10.40;;
40871;SDS011;26591;43.264;26.940;2023-02-04T13:01:33;22.60;;;14.77;;
40871;SDS011;26591;43.264;26.940;2023-02-04T13:03:59;26.02;;;16.73;;
40871;SDS011;26591;43.264;26.940;2023-02-04T13:06:24;16.73;;;12.05;;
40871;SDS011;26591;43.264;26.940;2023-02-04T13:08:50;28.20;;;18.50;;
40871;SDS011;26591;43.264;26.940;2023-02-04T13:11:15;17.75;;;12.05;;
40871;SDS011;26591;43.264;26.940;2023-02-04T13:13:41;21.00;;;13.13;;
40871;SDS011;26591;43.264;26.940;2023-02-04T13:16:06;15.63;;;11.88;;
40871;SDS011;26591;43.264;26.940;2023-02-04T13:18:31;19.65;;;14.02;;
40871;SDS011;26591;43.264;26.940;2023-02-04T13:20:58;14.65;;;11.00;;
40871;SDS011;26591;43.264;26.940;2023-02-04T13:23:24;22.23;;;15.50;;
40871;SDS011;26591;43.264;26.940;2023-02-04T13:25:50;38.95;;;23.33;;
40871;SDS011;26591;43.264;26.940;2023-02-04T13:28:15;33.25;;;20.75;;
40871;SDS011;26591;43.264;26.940;2023-02-04T13:30:41;39.08;;;25.05;;
40871;SDS011;26591;43.264;26.940;2023-02-04T13:33:06;38.60;;;23.88;;
40871;SDS011;26591;43.264;26.940;2023-02-04T13:35:32;34.40;;;22.88;;
40871;SDS011;26591;43.264;26.940;2023-02-04T13:37:58;31.20;;;20.10;;
40871;SDS011;26591;43.264;26.940;2023-02-04T13:40:24;21.67;;;14.50;;
40871;SDS011;26591;43.264;26.940;2023-02-04T13:42:49;23.75;;;14.07;;
40871;SDS011;26591;43.264;26.940;2023-02-04T13:45:15;31.20;;;17.73;;
40871;SDS011;26591;43.264;26.940;2023-02-04T13:47:42;29.80;;;16.92;;
40871;SDS011;26591;43.264;26.940;2023-02-04T13:50:08;28.48;;;17.85;;
40871;SDS011;26591;43.264;26.940;2023-02-04T13:52:34;25.98;;;15.48;;
40871;SDS011;26591;43.264;26.940;2023-02-04T13:54:59;22.48;;;15.85;;
40871;SDS011;26591;43.264;26.940;2023-02-04T13:57:25;20.25;;;15.13;;
40871;SDS011;26591;43.264;26.940;2023-02-04T13:59:50;27.70;;;18.05;;
40871;SDS011;26591;43.264;26.940;2023-02-04T14:02:16;24.05;;;17.00;;
40871;SDS011;26591;43.264;26.940;2023-02-04T14:04:41;24.85;;;16.67;;
40871;SDS011;26591;43.264;26.940;2023-02-04T14:07:08;21.92;;;15.43;;
40871;SDS011;26591;43.264;26.940;2023-02-04T14:09:33;22.92;;;16.35;;
40871;SDS011;26591;43.264;26.940;2023-02-04T14:11:59;24.88;;;16.58;;
40871;SDS011;26591;43.264;26.940;2023-02-04T14:14:24;26.42;;;16.45;;
40871;SDS011;26591;43.264;26.940;2023-02-04T14:16:50;27.45;;;18.35;;
40871;SDS011;26591;43.264;26.940;2023-02-04T14:19:15;25.33;;;16.58;;
40871;SDS011;26591;43.264;26.940;2023-02-04T14:21:41;23.88;;;15.82;;
40871;SDS011;26591;43.264;26.940;2023-02-04T14:24:06;23.80;;;16.98;;
40871;SDS011;26591;43.264;26.940;2023-02-04T14:26:32;28.27;;;17.45;;
40871;SDS011;26591;43.264;26.940;2023-02-04T14:28:57;25.20;;;17.60;;
40871;SDS011;26591;43.264;26.940;2023-02-04T14:31:22;22.83;;;16.52;;
40871;SDS011;26591;43.264;26.940;2023-02-04T14:33:48;18.38;;;12.75;;
40871;SDS011;26591;43.264;26.940;2023-02-04T14:36:14;21.77;;;13.75;;
40871;SDS011;26591;43.264;26.940;2023-02-04T14:38:40;18.70;;;13.55;;
40871;SDS011;26591;43.264;26.940;2023-02-04T14:41:05;16.63;;;12.45;;
40871;SDS011;26591;43.264;26.940;2023-02-04T14:43:31;18.98;;;12.48;;